Time;durP1;ratioP1;P1;durP2;ratioP2;P2;SDS_P1;SDS_P2;PMS_P1;PMS_P2;Temp;Humidity;BMP_temperature;BMP_pressure;BME280_temperature;BME280_humidity;BME280_pressure;Samples;Min_cycle;Max_cycle;Signal;HPM_P1;HPM_P2
2023/04/07 00:01:35;;;;;;;;;;;;;;;11.66;36.85;98513.41;5111616;28;19916;-78
2023/04/07 00:04:01;;;;;;;;;;;;;;;11.64;37.11;98507.44;5112758;28;19916;-77
2023/04/07 00:06:26;;;;;;;;;;;;;;;11.61;37.17;98512.94;5111592;28;19916;-77
2023/04/07 00:08:51;;;;;;;;;;;;;;;11.62;37.38;98514.59;5111517;28;19922;-77
2023/04/07 00:11:17;;;;;;;;;;;;;;;11.60;37.36;98519.97;5111701;28;20271;-77
2023/04/07 00:13:42;;;;;;;;;;;;;;;11.59;37.36;98518.28;5114296;28;20305;-77
2023/04/07 00:16:07;;;;;;;;;;;;;;;11.53;37.22;98517.03;5116663;28;19923;-77
2023/04/07 00:18:33;;;;;;;;;;;;;;;11.50;37.16;98522.53;5098245;28;19916;-77
2023/04/07 00:20:58;;;;;;;;;;;;;;;11.50;36.95;98519.91;5116273;28;19922;-78
2023/04/07 00:23:23;;;;;;;;;;;;;;;11.49;37.10;98517.41;5116873;28;19919;-77
2023/04/07 00:25:49;;;;;;;;;;;;;;;11.50;37.16;98522.53;5114889;28;19926;-77
2023/04/07 00:28:14;;;;;;;;;;;;;;;11.48;37.50;98524.44;5085831;28;19924;-77
2023/04/07 00:30:39;;;;;;;;;;;;;;;11.45;37.83;98518.63;5094936;28;20103;-78
2023/04/07 00:33:05;;;;;;;;;;;;;;;11.43;37.94;98518.75;5094712;28;20448;-78
2023/04/07 00:35:30;;;;;;;;;;;;;;;11.41;38.12;98518.88;5095153;28;20403;-78
2023/04/07 00:37:55;;;;;;;;;;;;;;;11.39;38.36;98523.41;5077614;28;19948;-78
2023/04/07 00:40:21;;;;;;;;;;;;;;;11.39;38.30;98522.59;5095835;28;19923;-78
2023/04/07 00:42:46;;;;;;;;;;;;;;;11.38;38.57;98528.75;5095574;28;20010;-77
2023/04/07 00:45:12;;;;;;;;;;;;;;;11.38;38.06;98526.97;5094259;28;19916;-78
2023/04/07 00:47:37;;;;;;;;;;;;;;;11.37;37.95;98534.97;5094309;28;19920;-79
2023/04/07 00:50:03;;;;;;;;;;;;;;;11.36;37.80;98534.13;5095060;28;19979;-78
2023/04/07 00:52:28;;;;;;;;;;;;;;;11.35;37.78;98531.63;5094375;28;20303;-78
2023/04/07 00:54:54;;;;;;;;;;;;;;;11.35;38.04;98526.41;5093447;28;19923;-78
2023/04/07 00:57:21;;;;;;;;;;;;;;;11.33;37.74;98526.53;5071737;28;19930;-78
2023/04/07 00:59:47;;;;;;;;;;;;;;;11.31;37.88;98531.06;5092269;28;19916;-77
2023/04/07 01:02:16;;;;;;;;;;;;;;;11.28;38.08;98536.53;5095275;28;19977;-78
2023/04/07 01:04:50;;;;;;;;;;;;;;;11.25;37.89;98534.19;5094132;28;19916;-77
2023/04/07 01:07:26;;;;;;;;;;;;;;;11.22;38.07;98535.25;5077572;28;19924;-77
2023/04/07 01:10:00;;;;;;;;;;;;;;;11.20;38.35;98538.97;5077123;28;19959;-79
2023/04/07 01:12:35;;;;;;;;;;;;;;;11.18;38.66;98538.22;5094396;28;19916;-76
2023/04/07 01:15:03;;;;;;;;;;;;;;;11.16;38.46;98540.16;5095105;28;19917;-78
2023/04/07 01:17:29;;;;;;;;;;;;;;;11.12;37.98;98530.94;5093857;28;19918;-77
2023/04/07 01:19:58;;;;;;;;;;;;;;;11.09;37.36;98537.22;5076730;28;19920;-78
2023/04/07 01:22:28;;;;;;;;;;;;;;;11.08;37.50;98537.34;5094169;28;19920;-78
2023/04/07 01:25:02;;;;;;;;;;;;;;;11.10;37.53;98535.44;5094721;28;19920;-78
2023/04/07 01:27:39;;;;;;;;;;;;;;;11.10;37.30;98533.66;5093225;28;20379;-78
2023/04/07 01:30:05;;;;;;;;;;;;;;;11.14;37.30;98526.41;5093630;28;19945;-77
2023/04/07 01:32:31;;;;;;;;;;;;;;;11.14;37.13;98539.47;5095076;28;19923;-77
2023/04/07 01:34:56;;;;;;;;;;;;;;;11.14;36.92;98539.47;5094024;28;19924;-78
2023/04/07 01:37:21;;;;;;;;;;;;;;;11.12;37.23;98534.34;5093810;28;19980;-78
2023/04/07 01:39:47;;;;;;;;;;;;;;;11.12;37.34;98538.75;5076445;28;19916;-77
2023/04/07 01:42:12;;;;;;;;;;;;;;;11.11;37.36;98537.09;5093384;28;19920;-78
2023/04/07 01:44:37;;;;;;;;;;;;;;;11.09;37.89;98537.22;5093351;28;19916;-77
2023/04/07 01:47:03;;;;;;;;;;;;;;;11.09;37.90;98539.00;5093423;28;19927;-77
2023/04/07 01:49:29;;;;;;;;;;;;;;;11.09;38.02;98541.63;5094179;28;19916;-79
2023/04/07 01:51:54;;;;;;;;;;;;;;;11.06;38.48;98539.25;5093228;28;19915;-78
2023/04/07 01:54:19;;;;;;;;;;;;;;;11.05;38.96;98541.03;5076156;28;20379;-77
2023/04/07 01:56:45;;;;;;;;;;;;;;;11.02;39.34;98541.28;5076131;28;19916;-78
2023/04/07 01:59:10;;;;;;;;;;;;;;;11.01;39.84;98539.63;5093092;28;19916;-77
2023/04/07 02:01:35;;;;;;;;;;;;;;;10.99;40.08;98544.13;5093087;28;20374;-77
2023/04/07 02:04:06;;;;;;;;;;;;;;;10.98;40.17;98548.53;5092765;28;20326;-77
2023/04/07 02:06:32;;;;;;;;;;;;;;;10.94;40.53;98543.69;5079107;28;20399;-77
2023/04/07 02:08:59;;;;;;;;;;;;;;;10.92;40.57;98537.75;5055872;28;19916;-76
2023/04/07 02:11:24;;;;;;;;;;;;;;;10.91;40.73;98542.16;5072606;28;19967;-77
2023/04/07 02:13:51;;;;;;;;;;;;;;;10.91;41.05;98539.56;5072944;28;20303;-77
2023/04/07 02:16:16;;;;;;;;;;;;;;;10.90;41.12;98539.69;5055826;28;19917;-77
2023/04/07 02:18:42;;;;;;;;;;;;;;;10.89;41.39;98545.84;5055689;28;20019;-77
2023/04/07 02:21:07;;;;;;;;;;;;;;;10.86;41.27;98539.06;5055719;28;19916;-76
2023/04/07 02:23:36;;;;;;;;;;;;;;;10.86;41.61;98541.69;5055601;28;20303;-77
2023/04/07 02:26:01;;;;;;;;;;;;;;;10.85;41.65;98543.47;5071793;28;20329;-77
2023/04/07 02:28:27;;;;;;;;;;;;;;;10.82;41.68;98538.50;5055615;28;19927;-77
2023/04/07 02:30:52;;;;;;;;;;;;;;;10.82;41.71;98538.50;5073790;28;20411;-78
2023/04/07 02:33:17;;;;;;;;;;;;;;;10.81;41.71;98538.63;5055493;28;19917;-78
2023/04/07 02:35:42;;;;;;;;;;;;;;;10.80;41.99;98539.56;5071577;28;19920;-77
2023/04/07 02:38:08;;;;;;;;;;;;;;;10.80;42.05;98544.78;5072021;28;19916;-77
2023/04/07 02:40:35;;;;;;;;;;;;;;;10.78;42.34;98549.31;5082129;28;19970;-77
2023/04/07 02:43:00;;;;;;;;;;;;;;;10.78;42.20;98539.69;5075822;28;19923;-78
2023/04/07 02:45:26;;;;;;;;;;;;;;;10.79;42.56;98545.75;5092463;28;19916;-77
2023/04/07 02:47:51;;;;;;;;;;;;;;;10.78;42.55;98549.31;5092120;28;20041;-78
2023/04/07 02:50:16;;;;;;;;;;;;;;;10.76;43.04;98546.00;5075127;28;19923;-79
2023/04/07 02:52:41;;;;;;;;;;;;;;;10.74;42.64;98555.75;5092009;28;19923;-79
2023/04/07 02:55:07;;;;;;;;;;;;;;;10.74;42.90;98553.13;5075103;28;20018;-78
2023/04/07 02:57:32;;;;;;;;;;;;;;;10.71;42.86;98550.78;5092015;28;20294;-78
2023/04/07 02:59:58;;;;;;;;;;;;;;;10.69;43.00;98548.28;5092242;28;19924;-78
2023/04/07 03:02:23;;;;;;;;;;;;;;;10.67;42.98;98555.38;5091952;28;20446;-78
2023/04/07 03:04:50;;;;;;;;;;;;;;;10.63;43.20;98546.97;5091861;28;19916;-78
2023/04/07 03:07:15;;;;;;;;;;;;;;;10.62;43.44;98550.53;5091793;28;19916;-78
2023/04/07 03:09:40;;;;;;;;;;;;;;;10.62;43.53;98547.91;5075207;28;20296;-79
2023/04/07 03:12:06;;;;;;;;;;;;;;;10.62;43.21;98553.13;5091825;28;19916;-78
2023/04/07 03:14:31;;;;;;;;;;;;;;;10.60;42.92;98559.44;5092096;28;19923;-79
2023/04/07 03:16:56;;;;;;;;;;;;;;;10.62;42.61;98555.75;5092445;28;19916;-79
2023/04/07 03:19:22;;;;;;;;;;;;;;;10.62;42.38;98555.75;5092392;28;19923;-78
2023/04/07 03:21:47;;;;;;;;;;;;;;;10.62;42.32;98560.97;5092192;28;20264;-78
2023/04/07 03:24:12;;;;;;;;;;;;;;;10.62;42.52;98562.75;5092571;28;20003;-79
2023/04/07 03:26:37;;;;;;;;;;;;;;;10.60;42.86;98560.28;5091245;28;20069;-78
2023/04/07 03:29:03;;;;;;;;;;;;;;;10.60;42.86;98567.28;5092597;28;19923;-77
2023/04/07 03:31:29;;;;;;;;;;;;;;;10.58;42.84;98556.97;5091326;28;19922;-77
2023/04/07 03:33:54;;;;;;;;;;;;;;;10.93;62.16;98562.94;5091788;28;20350;-83
2023/04/07 03:36:20;;;;;;;;;;;;;;;11.07;55.46;98574.84;5075650;28;19948;-84
2023/04/07 03:38:48;;;;;;;;;;;;;;;11.04;51.52;98575.94;5091541;28;20260;-79
2023/04/07 03:41:13;;;;;;;;;;;;;;;10.99;49.75;98581.53;5091968;28;19920;-83
2023/04/07 03:43:39;;;;;;;;;;;;;;;11.08;56.59;98579.13;5093996;28;19973;-76
2023/04/07 03:46:04;;;;;;;;;;;;;;;11.37;57.19;98592.47;5076353;28;20294;-81
2023/04/07 03:48:30;;;;;;;;;;;;;;;11.26;52.76;98589.88;5095226;28;20030;-78
2023/04/07 03:50:55;;;;;;;;;;;;;;;11.13;51.64;98585.66;5078676;28;20379;-83
2023/04/07 03:53:20;;;;;;;;;;;;;;;11.04;50.76;98586.41;5081029;28;20065;-80
2023/04/07 03:55:46;;;;;;;;;;;;;;;10.99;49.89;98586.78;5078570;28;20439;-77
2023/04/07 03:58:12;;;;;;;;;;;;;;;10.94;48.98;98581.09;5095215;28;19945;-77
2023/04/07 04:00:37;;;;;;;;;;;;;;;10.89;48.16;98591.06;5094168;28;19916;-79
2023/04/07 04:03:02;;;;;;;;;;;;;;;10.85;47.31;98594.88;5095156;28;19931;-79
2023/04/07 04:05:28;;;;;;;;;;;;;;;10.84;46.97;98593.22;5095179;28;20390;-79
2023/04/07 04:07:53;;;;;;;;;;;;;;;10.81;46.59;98602.09;5096867;28;19920;-78
2023/04/07 04:10:18;;;;;;;;;;;;;;;10.78;46.43;98597.13;5078432;28;20417;-78
2023/04/07 04:12:45;;;;;;;;;;;;;;;10.77;45.84;98597.25;5095149;28;19916;-78
2023/04/07 04:15:10;;;;;;;;;;;;;;;10.78;45.67;98601.53;5095163;28;19921;-78
2023/04/07 04:17:36;;;;;;;;;;;;;;;10.84;51.59;98598.44;5081207;28;20280;-76
2023/04/07 04:20:02;;;;;;;;;;;;;;;11.14;56.92;98610.81;5100914;28;19916;-77
2023/04/07 04:22:27;;;;;;;;;;;;;;;11.16;52.76;98613.31;5095848;28;19965;-76
2023/04/07 04:24:52;;;;;;;;;;;;;;;11.09;51.20;98610.38;5077491;28;19920;-82
2023/04/07 04:27:18;;;;;;;;;;;;;;;11.14;52.56;98615.22;5112486;28;19969;-76
2023/04/07 04:29:43;;;;;;;;;;;;;;;11.08;51.56;98610.47;5116126;28;19920;-76
2023/04/07 04:32:08;;;;;;;;;;;;;;;11.02;50.06;98614.41;5081155;28;20302;-76
2023/04/07 04:34:34;;;;;;;;;;;;;;;10.95;49.00;98613.25;5097164;28;19916;-75
2023/04/07 04:36:59;;;;;;;;;;;;;;;10.88;48.74;98615.53;5097757;28;19923;-76
2023/04/07 04:39:24;;;;;;;;;;;;;;;10.83;48.21;98617.66;5081106;28;19915;-75
2023/04/07 04:41:50;;;;;;;;;;;;;;;10.81;47.68;98622.19;5116343;28;19981;-76
2023/04/07 04:44:15;;;;;;;;;;;;;;;10.79;47.50;98627.53;5116290;28;19919;-75
2023/04/07 04:46:40;;;;;;;;;;;;;;;10.81;47.22;98623.00;5097558;28;20010;-75
2023/04/07 04:49:06;;;;;;;;;;;;;;;10.86;46.98;98635.69;5102288;27;20003;-77
2023/04/07 04:51:31;;;;;;;;;;;;;;;10.90;46.27;98628.47;5102488;27;19920;-78
2023/04/07 04:53:56;;;;;;;;;;;;;;;10.93;45.75;98634.28;5104975;28;19920;-77
2023/04/07 04:56:21;;;;;;;;;;;;;;;10.98;45.80;98631.28;5088375;28;20436;-77
2023/04/07 04:58:47;;;;;;;;;;;;;;;11.02;45.79;98644.00;5096500;28;19919;-76
2023/04/07 05:01:12;;;;;;;;;;;;;;;11.03;45.29;98631.75;5097014;28;19927;-76
2023/04/07 05:03:37;;;;;;;;;;;;;;;11.08;44.92;98634.00;5097743;28;19923;-76
2023/04/07 05:06:03;;;;;;;;;;;;;;;11.11;44.81;98636.38;5095929;28;19926;-76
2023/04/07 05:08:28;;;;;;;;;;;;;;;11.15;44.57;98632.56;5078967;28;19999;-75
2023/04/07 05:10:54;;;;;;;;;;;;;;;11.17;44.76;98639.31;5095832;28;19929;-76
2023/04/07 05:13:20;;;;;;;;;;;;;;;11.18;44.53;98640.13;5096593;28;19927;-76
2023/04/07 05:15:45;;;;;;;;;;;;;;;11.19;44.18;98641.78;5096474;28;20305;-75
2023/04/07 05:18:11;;;;;;;;;;;;;;;11.21;43.88;98645.97;5096080;28;19924;-75
2023/04/07 05:20:36;;;;;;;;;;;;;;;11.24;43.90;98642.25;5079042;28;19919;-75
2023/04/07 05:23:01;;;;;;;;;;;;;;;11.28;43.78;98641.06;5097230;28;20069;-75
2023/04/07 05:25:27;;;;;;;;;;;;;;;11.31;43.65;98648.66;5097051;28;19919;-76
2023/04/07 05:27:52;;;;;;;;;;;;;;;11.36;43.56;98656.13;5080695;28;19930;-77
2023/04/07 05:30:17;;;;;;;;;;;;;;;11.37;43.70;98650.78;5096910;28;20392;-76
2023/04/07 05:32:43;;;;;;;;;;;;;;;11.40;43.61;98660.97;5080365;28;19920;-75
2023/04/07 05:35:08;;;;;;;;;;;;;;;11.43;43.31;98657.28;5096876;28;19915;-76
2023/04/07 05:37:34;;;;;;;;;;;;;;;11.47;43.25;98660.50;5080002;28;20018;-77
2023/04/07 05:39:59;;;;;;;;;;;;;;;11.51;42.84;98656.66;5097731;28;20401;-76
2023/04/07 05:42:25;;;;;;;;;;;;;;;11.55;42.53;98658.91;5115521;28;19920;-76
2023/04/07 05:44:50;;;;;;;;;;;;;;;11.61;42.72;98661.97;5079935;28;19941;-78
2023/04/07 05:47:17;;;;;;;;;;;;;;;11.66;41.95;98660.63;5079762;28;19923;-78
2023/04/07 05:49:45;;;;;;;;;;;;;;;11.75;42.10;98661.69;5096613;28;19959;-76
2023/04/07 05:52:13;;;;;;;;;;;;;;;11.83;41.80;98663.63;5080549;28;19920;-77
2023/04/07 05:54:41;;;;;;;;;;;;;;;11.94;41.64;98667.06;5079715;28;19916;-77
2023/04/07 05:57:08;;;;;;;;;;;;;;;12.03;41.07;98662.03;5079670;28;19922;-78
2023/04/07 05:59:34;;;;;;;;;;;;;;;12.13;40.70;98673.41;5114762;28;20066;-78
2023/04/07 06:01:59;;;;;;;;;;;;;;;12.23;39.97;98674.25;5079574;28;19977;-79
2023/04/07 06:04:25;;;;;;;;;;;;;;;12.36;39.66;98670.63;5096082;28;19916;-78
2023/04/07 06:06:54;;;;;;;;;;;;;;;12.48;39.55;98675.63;5078917;28;19922;-77
2023/04/07 06:09:19;;;;;;;;;;;;;;;12.63;39.15;98670.03;5079333;28;19916;-75
2023/04/07 06:11:45;;;;;;;;;;;;;;;12.74;38.59;98672.56;5094798;28;19923;-78
2023/04/07 06:14:11;;;;;;;;;;;;;;;12.81;38.46;98678.94;5096664;28;19919;-79
2023/04/07 06:16:37;;;;;;;;;;;;;;;12.90;38.13;98682.53;5079310;28;19916;-77
2023/04/07 06:19:06;;;;;;;;;;;;;;;12.97;37.46;98672.38;5078543;28;19920;-78
2023/04/07 06:21:31;;;;;;;;;;;;;;;13.04;37.90;98676.09;5079645;28;19923;-76
2023/04/07 06:23:56;;;;;;;;;;;;;;;13.11;37.32;98682.47;5079684;28;19916;-79
2023/04/07 06:26:24;;;;;;;;;;;;;;;13.24;36.93;98678.78;5095870;28;19927;-76
2023/04/07 06:28:51;;;;;;;;;;;;;;;13.51;36.01;98680.78;5079213;28;19920;-76
2023/04/07 06:31:17;;;;;;;;;;;;;;;13.64;35.56;98681.31;5096092;28;19999;-75
2023/04/07 06:33:42;;;;;;;;;;;;;;;13.78;35.31;98685.31;5114111;28;19980;-77
2023/04/07 06:36:08;;;;;;;;;;;;;;;13.92;35.09;98695.41;5095753;28;20445;-77
2023/04/07 06:38:33;;;;;;;;;;;;;;;14.06;35.06;98702.03;5095926;28;19920;-77
2023/04/07 06:40:58;;;;;;;;;;;;;;;14.19;34.50;98695.66;5079110;28;20371;-77
2023/04/07 06:43:24;;;;;;;;;;;;;;;14.26;34.50;98701.97;5078084;28;19969;-78
2023/04/07 06:45:49;;;;;;;;;;;;;;;14.30;34.41;98712.06;5078211;28;20317;-79
2023/04/07 06:48:15;;;;;;;;;;;;;;;14.33;34.26;98708.34;5095424;28;19998;-78
2023/04/07 06:50:40;;;;;;;;;;;;;;;14.38;34.04;98707.91;5078469;28;19962;-77
2023/04/07 06:53:06;;;;;;;;;;;;;;;14.36;33.56;98718.56;5095681;28;19916;-76
2023/04/07 06:55:31;;;;;;;;;;;;;;;14.32;33.01;98708.47;5079113;28;20283;-77
2023/04/07 06:57:57;;;;;;;;;;;;;;;14.32;32.86;98721.59;5078500;28;19923;-78
2023/04/07 07:00:22;;;;;;;;;;;;;;;14.33;32.50;98718.84;5078750;28;20390;-79
2023/04/07 07:02:48;;;;;;;;;;;;;;;14.35;32.50;98722.13;5079122;28;20291;-77
2023/04/07 07:05:13;;;;;;;;;;;;;;;14.37;32.48;98719.38;5078295;28;19927;-76
2023/04/07 07:07:39;;;;;;;;;;;;;;;14.46;32.39;98715.91;5078530;28;19920;-78
2023/04/07 07:10:05;;;;;;;;;;;;;;;14.53;32.12;98724.03;5078450;28;20428;-77
2023/04/07 07:12:31;;;;;;;;;;;;;;;14.54;32.17;98728.31;5095169;28;19965;-77
2023/04/07 07:14:56;;;;;;;;;;;;;;;14.52;32.17;98727.66;5095507;28;20010;-78
2023/04/07 07:17:21;;;;;;;;;;;;;;;14.51;32.07;98731.22;5078259;28;20066;-78
2023/04/07 07:19:47;;;;;;;;;;;;;;;14.48;32.17;98733.19;5078361;28;19916;-77
2023/04/07 07:22:13;;;;;;;;;;;;;;;14.53;32.03;98729.28;5077898;28;19927;-78
2023/04/07 07:24:38;;;;;;;;;;;;;;;14.65;31.88;98741.31;5095553;28;19915;-78
2023/04/07 07:27:04;;;;;;;;;;;;;;;14.71;31.76;98737.31;5094277;28;20393;-78
2023/04/07 07:29:30;;;;;;;;;;;;;;;14.78;31.88;98739.19;5095508;28;20309;-77
2023/04/07 07:31:55;;;;;;;;;;;;;;;15.08;31.65;98749.59;5077919;28;20263;-77
2023/04/07 07:34:20;;;;;;;;;;;;;;;15.29;31.39;98749.34;5077535;28;19922;-78
2023/04/07 07:36:46;;;;;;;;;;;;;;;15.62;30.79;98740.00;5113493;28;19916;-77
2023/04/07 07:39:11;;;;;;;;;;;;;;;15.80;30.52;98744.50;5078307;28;20366;-76
2023/04/07 07:41:36;;;;;;;;;;;;;;;16.05;30.40;98749.00;5078184;28;19915;-77
2023/04/07 07:44:01;;;;;;;;;;;;;;;16.41;29.63;98748.09;5078092;28;19916;-78
2023/04/07 07:46:28;;;;;;;;;;;;;;;16.71;29.15;98752.06;5077701;28;20013;-77
2023/04/07 07:48:53;;;;;;;;;;;;;;;16.99;28.48;98747.47;5077806;28;19933;-77
2023/04/07 07:51:18;;;;;;;;;;;;;;;17.12;28.61;98743.56;5078481;28;20018;-79
2023/04/07 07:53:44;;;;;;;;;;;;;;;17.22;28.03;98743.44;5095009;28;20367;-80
2023/04/07 07:56:10;;;;;;;;;;;;;;;17.34;27.91;98756.19;5094922;28;19964;-76
2023/04/07 07:58:36;;;;;;;;;;;;;;;17.37;28.11;98752.41;5094970;28;19916;-80
2023/04/07 08:01:01;;;;;;;;;;;;;;;17.69;27.63;98753.47;5094723;28;19922;-78
2023/04/07 08:03:26;;;;;;;;;;;;;;;17.84;26.74;98762.41;5077885;28;19916;-77
2023/04/07 08:05:52;;;;;;;;;;;;;;;18.04;26.49;98759.47;5077188;28;19916;-77
2023/04/07 08:08:19;;;;;;;;;;;;;;;18.31;25.68;98760.13;5094668;28;19916;-78
2023/04/07 08:10:44;;;;;;;;;;;;;;;18.40;25.97;98757.31;5078551;28;19919;-78
2023/04/07 08:13:10;;;;;;;;;;;;;;;18.63;25.51;98762.75;5077880;28;20417;-78
2023/04/07 08:15:35;;;;;;;;;;;;;;;19.01;24.70;98756.06;5076887;28;19916;-77
2023/04/07 08:18:03;;;;;;;;;;;;;;;19.29;24.55;98764.38;5094971;28;19915;-77
2023/04/07 08:20:28;;;;;;;;;;;;;;;19.40;24.35;98758.69;5094715;28;19981;-77
2023/04/07 08:22:54;;;;;;;;;;;;;;;19.75;23.77;98759.19;5077210;28;20374;-78
2023/04/07 08:25:20;;;;;;;;;;;;;;;20.10;22.86;98751.69;5094912;28;19989;-78
2023/04/07 08:27:45;;;;;;;;;;;;;;;20.57;22.44;98752.41;5077456;28;19968;-76
2023/04/07 08:30:10;;;;;;;;;;;;;;;21.15;21.08;98752.63;5077262;28;19969;-76
2023/04/07 08:32:36;;;;;;;;;;;;;;;22.00;20.72;98743.16;5076748;28;19915;-76
2023/04/07 08:35:02;;;;;;;;;;;;;;;22.30;20.57;98734.25;5080664;28;20367;-77
2023/04/07 08:37:27;;;;;;;;;;;;;;;22.60;20.26;98745.50;5098204;28;19966;-76
2023/04/07 08:39:52;;;;;;;;;;;;;;;22.95;19.20;98740.16;5081238;28;19926;-74
2023/04/07 08:42:18;;;;;;;;;;;;;;;23.54;18.96;98744.13;5080942;28;19915;-77
2023/04/07 08:44:44;;;;;;;;;;;;;;;23.94;18.78;98738.91;5097860;28;19920;-76
2023/04/07 08:47:10;;;;;;;;;;;;;;;24.33;18.64;98734.59;5097832;28;19915;-76
2023/04/07 08:49:36;;;;;;;;;;;;;;;24.54;17.82;98741.56;5080928;28;20306;-79
2023/04/07 08:52:02;;;;;;;;;;;;;;;24.99;17.91;98743.53;5097716;28;19916;-78
2023/04/07 08:54:27;;;;;;;;;;;;;;;25.10;17.64;98742.06;5097912;28;19927;-75
2023/04/07 08:56:52;;;;;;;;;;;;;;;25.08;17.44;98744.94;5080596;28;20502;-75
2023/04/07 08:59:17;;;;;;;;;;;;;;;25.26;17.07;98741.56;5097813;28;20348;-79
2023/04/07 09:01:43;;;;;;;;;;;;;;;24.78;17.21;98746.47;5081024;28;20435;-76
2023/04/07 09:04:08;;;;;;;;;;;;;;;24.69;17.88;98744.00;5080346;28;20404;-77
2023/04/07 09:06:34;;;;;;;;;;;;;;;24.71;17.82;98749.16;5097540;28;20347;-77
2023/04/07 09:08:59;;;;;;;;;;;;;;;24.45;17.75;98744.63;5097966;28;19923;-74
2023/04/07 09:11:26;;;;;;;;;;;;;;;24.52;18.02;98745.44;5080402;28;19916;-79
2023/04/07 09:13:52;;;;;;;;;;;;;;;24.46;17.94;98746.28;5115602;28;19916;-75
2023/04/07 09:16:17;;;;;;;;;;;;;;;24.06;18.68;98746.28;5080528;28;19915;-79
2023/04/07 09:18:42;;;;;;;;;;;;;;;23.62;19.14;98753.78;5080610;28;19926;-77
2023/04/07 09:21:08;;;;;;;;;;;;;;;23.61;18.98;98742.28;5097530;28;19915;-76
2023/04/07 09:23:34;;;;;;;;;;;;;;;23.33;19.06;98745.06;5080793;28;19926;-76
2023/04/07 09:26:01;;;;;;;;;;;;;;;23.39;18.88;98744.28;5080139;28;19919;-77
2023/04/07 09:28:41;;;;;;;;;;;;;;;23.10;19.57;98746.22;5080173;28;20346;-76
2023/04/07 09:31:07;;;;;;;;;;;;;;;23.02;19.68;98740.19;5080335;28;20018;-76
2023/04/07 09:33:32;;;;;;;;;;;;;;;23.28;19.38;98737.69;5080300;28;20003;-76
2023/04/07 09:35:57;;;;;;;;;;;;;;;22.92;19.51;98730.72;5080278;28;19916;-77
2023/04/07 09:38:24;;;;;;;;;;;;;;;22.75;19.80;98734.72;5079981;28;19926;-77
2023/04/07 09:40:50;;;;;;;;;;;;;;;22.70;19.77;98734.50;5097140;28;19985;-76
2023/04/07 09:43:16;;;;;;;;;;;;;;;22.60;20.11;98732.19;5079242;28;20387;-76
2023/04/07 09:45:41;;;;;;;;;;;;;;;22.46;20.69;98738.44;5079847;28;19962;-77
2023/04/07 09:48:07;;;;;;;;;;;;;;;22.25;20.75;98724.16;5097101;28;19920;-77
2023/04/07 09:50:34;;;;;;;;;;;;;;;21.99;20.94;98730.88;5079706;28;19916;-77
2023/04/07 09:53:00;;;;;;;;;;;;;;;21.79;21.14;98733.38;5096954;28;19915;-78
2023/04/07 09:55:26;;;;;;;;;;;;;;;21.39;21.09;98735.53;5079891;28;19949;-79
2023/04/07 09:57:51;;;;;;;;;;;;;;;20.87;21.73;98736.53;5079630;28;20014;-78
2023/04/07 10:00:17;;;;;;;;;;;;;;;20.82;21.95;98730.97;5079230;28;20306;-77
2023/04/07 10:02:42;;;;;;;;;;;;;;;20.92;22.44;98728.84;5079114;28;19916;-77
2023/04/07 10:05:08;;;;;;;;;;;;;;;20.81;22.24;98731.97;5096310;28;19916;-77
2023/04/07 10:07:34;;;;;;;;;;;;;;;20.67;22.49;98726.47;5079405;28;19920;-76
2023/04/07 10:09:59;;;;;;;;;;;;;;;20.52;22.63;98726.41;5079386;28;19923;-77
2023/04/07 10:12:25;;;;;;;;;;;;;;;20.61;22.85;98724.53;5096448;28;19916;-77
2023/04/07 10:14:51;;;;;;;;;;;;;;;20.98;22.56;98724.63;5096209;28;19945;-77
2023/04/07 10:17:18;;;;;;;;;;;;;;;20.96;22.47;98716.88;5096329;28;19916;-76
2023/04/07 10:19:43;;;;;;;;;;;;;;;20.81;22.30;98724.00;5078921;28;19922;-75
2023/04/07 10:22:08;;;;;;;;;;;;;;;20.96;22.44;98719.50;5096041;28;19915;-75
2023/04/07 10:24:40;;;;;;;;;;;;;;;21.12;22.38;98715.84;5096136;28;20018;-76
2023/04/07 10:27:07;;;;;;;;;;;;;;;20.95;22.45;98724.00;5095634;28;19986;-76
2023/04/07 10:29:37;;;;;;;;;;;;;;;21.06;22.13;98720.06;5079008;28;19955;-77
2023/04/07 10:32:03;;;;;;;;;;;;;;;21.07;22.03;98713.72;5078711;28;19920;-76
2023/04/07 10:34:47;;;;;;;;;;;;;;;21.13;22.01;98714.84;5095916;28;20359;-78
2023/04/07 10:37:13;;;;;;;;;;;;;;;21.15;22.03;98718.13;5095827;28;19965;-76
2023/04/07 10:39:38;;;;;;;;;;;;;;;20.83;21.56;98719.34;5079048;28;20303;-76
2023/04/07 10:42:04;;;;;;;;;;;;;;;20.61;22.23;98703.31;5096188;28;20359;-77
2023/04/07 10:44:41;;;;;;;;;;;;;;;20.61;22.50;98711.25;5078984;28;19916;-76
2023/04/07 10:47:07;;;;;;;;;;;;;;;20.41;22.81;98706.50;5095911;28;19984;-75
2023/04/07 10:49:33;;;;;;;;;;;;;;;20.31;22.58;98710.41;5095843;28;20370;-77
2023/04/07 10:52:11;;;;;;;;;;;;;;;20.34;22.66;98716.16;5078641;28;20385;-76
2023/04/07 10:54:36;;;;;;;;;;;;;;;20.07;22.93;98722.88;5095486;28;20018;-77
2023/04/07 10:57:01;;;;;;;;;;;;;;;19.91;22.72;98723.00;5094974;28;20393;-78
2023/04/07 10:59:30;;;;;;;;;;;;;;;19.74;22.71;98717.81;5095354;28;19923;-75
2023/04/07 11:02:13;;;;;;;;;;;;;;;19.76;22.88;98718.47;5078415;28;19916;-77
2023/04/07 11:04:42;;;;;;;;;;;;;;;19.48;23.12;98721.63;5095370;28;19919;-77
2023/04/07 11:07:10;;;;;;;;;;;;;;;19.33;23.15;98731.28;5078744;28;19923;-76
2023/04/07 11:09:36;;;;;;;;;;;;;;;19.33;23.35;98729.47;5078867;28;19923;-78
2023/04/07 11:12:01;;;;;;;;;;;;;;;18.96;23.71;98724.81;5078478;28;19916;-78
2023/04/07 11:14:27;;;;;;;;;;;;;;;18.96;23.77;98730.97;5078183;28;19916;-77
2023/04/07 11:16:52;;;;;;;;;;;;;;;18.83;23.87;98722.69;5078366;28;19915;-77
2023/04/07 11:19:18;;;;;;;;;;;;;;;18.73;23.70;98730.81;5078652;28;20016;-76
2023/04/07 11:21:43;;;;;;;;;;;;;;;18.80;23.99;98725.69;5078572;28;20294;-77
2023/04/07 11:24:08;;;;;;;;;;;;;;;18.91;24.12;98722.72;5078444;28;19922;-76
2023/04/07 11:26:38;;;;;;;;;;;;;;;19.05;24.32;98737.03;5094968;28;19926;-76
2023/04/07 11:29:03;;;;;;;;;;;;;;;19.12;24.27;98723.97;5095306;28;19977;-77
2023/04/07 11:31:30;;;;;;;;;;;;;;;19.19;24.34;98722.25;5095251;28;19916;-78
2023/04/07 11:33:59;;;;;;;;;;;;;;;18.65;25.09;98722.09;5078494;28;19923;-76
2023/04/07 11:36:28;;;;;;;;;;;;;;;18.55;25.24;98723.13;5077866;28;19999;-78
2023/04/07 11:38:54;;;;;;;;;;;;;;;18.43;25.25;98721.81;5078335;28;19927;-77
2023/04/07 11:41:20;;;;;;;;;;;;;;;18.22;25.60;98712.59;5077767;28;20002;-77
2023/04/07 11:43:45;;;;;;;;;;;;;;;18.12;25.68;98711.91;5078041;28;20405;-77
2023/04/07 11:46:12;;;;;;;;;;;;;;;18.13;25.71;98720.69;5077808;28;19999;-77
2023/04/07 11:48:38;;;;;;;;;;;;;;;18.01;25.63;98714.91;5095276;28;20014;-77
2023/04/07 11:51:03;;;;;;;;;;;;;;;17.88;25.69;98721.53;5077877;28;19969;-77
2023/04/07 11:53:29;;;;;;;;;;;;;;;17.73;25.71;98713.38;5077918;28;19924;-76
2023/04/07 11:56:18;;;;;;;;;;;;;;;17.78;25.72;98709.44;5078051;28;19923;-76
2023/04/07 11:58:47;;;;;;;;;;;;;;;17.79;25.89;98709.28;5092996;28;20014;-75
2023/04/07 12:01:13;;;;;;;;;;;;;;;17.71;26.05;98704.81;5077958;28;19923;-74
2023/04/07 12:03:48;;;;;;;;;;;;;;;17.67;26.17;98700.84;5094953;28;19916;-75
2023/04/07 12:06:14;;;;;;;;;;;;;;;17.53;26.40;98697.00;5077783;28;19929;-77
2023/04/07 12:08:40;;;;;;;;;;;;;;;17.48;26.02;98709.88;5096123;28;20041;-77
2023/04/07 12:11:06;;;;;;;;;;;;;;;17.55;25.94;98694.22;5081390;28;20004;-77
2023/04/07 12:13:32;;;;;;;;;;;;;;;17.52;26.13;98698.03;5081708;28;20344;-77
2023/04/07 12:16:00;;;;;;;;;;;;;;;17.49;26.15;98694.84;5098581;28;19964;-77
2023/04/07 12:18:27;;;;;;;;;;;;;;;17.47;26.19;98694.19;5081921;28;20469;-76
2023/04/07 12:20:52;;;;;;;;;;;;;;;17.60;25.52;98699.00;5081339;28;19916;-75
2023/04/07 12:23:17;;;;;;;;;;;;;;;17.43;25.32;98695.53;5097715;28;20430;-79
2023/04/07 12:25:42;;;;;;;;;;;;;;;17.33;25.95;98693.88;5080959;28;19927;-77
2023/04/07 12:28:08;;;;;;;;;;;;;;;17.45;25.78;98698.81;5081214;28;19919;-78
2023/04/07 12:30:33;;;;;;;;;;;;;;;17.40;25.33;98698.50;5081194;28;19927;-77
2023/04/07 12:32:59;;;;;;;;;;;;;;;17.17;25.37;98702.56;5081059;28;20014;-77
2023/04/07 12:35:24;;;;;;;;;;;;;;;17.01;26.11;98699.84;5097702;28;19962;-77
2023/04/07 12:37:51;;;;;;;;;;;;;;;17.13;25.77;98697.75;5081275;28;19983;-77
2023/04/07 12:40:17;;;;;;;;;;;;;;;17.02;25.81;98696.25;5098357;28;19959;-78
2023/04/07 12:42:42;;;;;;;;;;;;;;;16.89;25.57;98691.41;5080976;28;20421;-77